Time;durP1;ratioP1;P1;durP2;ratioP2;P2;SDS_P1;SDS_P2;PMS_P1;PMS_P2;Temp;Humidity;BMP_temperature;BMP_pressure;BME280_temperature;BME280_humidity;BME280_pressure;Samples;Min_cycle;Max_cycle;Signal;HPM_P1;HPM_P2
2022/12/10 00:00:19;;;;;;;34.50;20.65;;;;;;;0.66;100.00;95308.19;5008615;28;20045;-66
2022/12/10 00:02:44;;;;;;;35.45;20.58;;;;;;;0.66;100.00;95308.19;4996364;28;20092;-68
2022/12/10 00:05:10;;;;;;;33.28;19.63;;;;;;;0.73;100.00;95305.72;4995869;28;20041;-68
2022/12/10 00:07:35;;;;;;;38.30;21.88;;;;;;;0.71;100.00;95303.34;4995196;28;20057;-68
2022/12/10 00:10:01;;;;;;;35.55;21.15;;;;;;;0.55;100.00;95305.94;4997821;28;20174;-66
2022/12/10 00:12:26;;;;;;;36.88;21.17;;;;;;;0.48;100.00;95300.31;4991603;28;20057;-65
2022/12/10 00:14:52;;;;;;;34.45;20.58;;;;;;;0.27;100.00;95307.69;4996719;28;20100;-67
2022/12/10 00:17:17;;;;;;;78.90;35.40;;;;;;;0.11;100.00;95294.88;4993260;28;20045;-66
2022/12/10 00:19:42;;;;;;;38.25;22.30;;;;;;;-0.15;100.00;95295.13;4987346;28;20038;-67
2022/12/10 00:22:08;;;;;;;37.08;22.08;;;;;;;-0.27;100.00;95295.09;4994938;28;20034;-68
2022/12/10 00:24:33;;;;;;;41.30;22.52;;;;;;;-0.39;100.00;95295.84;4980109;28;20391;-68
2022/12/10 00:26:59;;;;;;;43.45;24.45;;;;;;;-0.53;100.00;95289.97;4989121;28;20403;-68
2022/12/10 00:29:24;;;;;;;46.28;25.65;;;;;;;-0.56;100.00;95291.38;4975839;28;20049;-66
2022/12/10 00:31:49;;;;;;;46.78;26.25;;;;;;;-0.55;100.00;95284.13;4979193;28;20117;-67
2022/12/10 00:34:15;;;;;;;48.80;25.52;;;;;;;-0.60;100.00;95282.41;4974139;28;20042;-66
2022/12/10 00:36:46;;;;;;;51.25;26.85;;;;;;;-0.64;100.00;95278.81;4979953;28;20046;-67
2022/12/10 00:39:15;;;;;;;56.75;28.10;;;;;;;-0.70;100.00;95272.84;4982135;28;20046;-67
2022/12/10 00:41:41;;;;;;;58.57;29.53;;;;;;;-0.70;100.00;95272.84;4992528;28;20548;-66
2022/12/10 00:44:06;;;;;;;59.30;30.45;;;;;;;-0.73;100.00;95270.03;4993276;28;20128;-67
2022/12/10 00:46:31;;;;;;;65.97;31.50;;;;;;;-0.74;100.00;95271.13;4998470;28;20038;-68
2022/12/10 00:48:58;;;;;;;60.30;30.80;;;;;;;-0.74;100.00;95271.91;4996729;28;20553;-67
2022/12/10 00:51:25;;;;;;;62.38;30.95;;;;;;;-0.75;100.00;95277.66;4994200;28;20539;-69
2022/12/10 00:53:52;;;;;;;64.50;30.98;;;;;;;-0.72;100.00;95290.41;4999352;28;20038;-67
2022/12/10 00:56:21;;;;;;;57.38;28.92;;;;;;;-0.72;100.00;95290.41;4994064;28;20034;-67
2022/12/10 00:58:47;;;;;;;60.27;30.60;;;;;;;-0.67;100.00;95291.00;4997528;28;20042;-67
2022/12/10 01:01:28;;;;;;;53.53;27.35;;;;;;;-0.60;100.00;95288.56;4994583;28;20037;-67
2022/12/10 01:03:58;;;;;;;59.90;28.95;;;;;;;-0.50;100.00;95295.47;4996727;28;20034;-66
2022/12/10 01:06:25;;;;;;;55.83;28.35;;;;;;;-0.43;100.00;95292.25;4993989;28;20057;-70
2022/12/10 01:08:53;;;;;;;51.22;26.65;;;;;;;-0.32;100.00;95288.03;4989111;28;20042;-68
2022/12/10 01:11:21;;;;;;;55.63;28.73;;;;;;;-0.47;100.00;95289.44;4987762;28;20097;-69
2022/12/10 01:13:48;;;;;;;51.78;28.95;;;;;;;-0.55;100.00;95282.22;4998010;28;20030;-70
2022/12/10 01:16:17;;;;;;;56.83;28.25;;;;;;;-0.61;100.00;95283.53;4992219;28;20125;-70
2022/12/10 01:18:43;;;;;;;63.10;31.52;;;;;;;-0.62;100.00;95293.50;4998657;28;20558;-68
2022/12/10 01:21:12;;;;;;;60.30;29.83;;;;;;;-0.63;100.00;95281.19;4998996;28;20076;-68
2022/12/10 01:23:40;;;;;;;57.53;28.85;;;;;;;-0.63;100.00;95283.06;4989789;28;20034;-69
2022/12/10 01:26:08;;;;;;;59.50;28.50;;;;;;;-0.57;100.00;95289.06;4998926;28;20136;-68
2022/12/10 01:28:36;;;;;;;55.30;27.02;;;;;;;-0.43;100.00;95286.88;5003371;28;20526;-69
2022/12/10 01:31:03;;;;;;;51.97;27.33;;;;;;;-0.24;100.00;95287.16;5005175;28;20117;-70
2022/12/10 01:33:30;;;;;;;51.97;27.20;;;;;;;-0.10;100.00;95284.16;5003158;28;20045;-70
2022/12/10 01:35:55;;;;;;;46.67;25.25;;;;;;;-0.02;100.00;95295.97;5005489;28;20046;-69
2022/12/10 01:38:22;;;;;;;43.60;24.98;;;;;;;0.05;100.00;95293.50;5009779;28;20375;-68
2022/12/10 01:40:47;;;;;;;46.15;24.58;;;;;;;0.16;100.00;95297.38;5027066;28;20053;-69
2022/12/10 01:43:14;;;;;;;43.58;23.83;;;;;;;0.22;100.00;95297.94;5006030;28;20125;-70
2022/12/10 01:45:39;;;;;;;39.53;22.88;;;;;;;0.26;100.00;95300.75;5008528;28;20038;-68
2022/12/10 01:48:05;;;;;;;40.47;24.27;;;;;;;-0.05;100.00;95294.72;5002294;28;20048;-69
2022/12/10 01:50:31;;;;;;;42.53;24.08;;;;;;;-0.36;100.00;95300.59;5005296;28;20069;-69
2022/12/10 01:52:57;;;;;;;48.90;26.90;;;;;;;-0.58;100.00;95277.50;5004941;28;20049;-70
2022/12/10 01:55:37;;;;;;;57.03;29.00;;;;;;;-0.68;100.00;95273.31;4998482;28;21028;-69
2022/12/10 01:58:03;;;;;;;62.80;31.17;;;;;;;-0.72;100.00;95279.66;5002521;28;20046;-69
2022/12/10 02:00:30;;;;;;;63.92;31.23;;;;;;;-0.71;100.00;95278.56;4993111;28;20061;-69
2022/12/10 02:03:04;;;;;;;63.05;30.52;;;;;;;-0.73;100.00;95286.16;4988145;28;20073;-70
2022/12/10 02:05:41;;;;;;;63.50;32.15;;;;;;;-0.73;100.00;95286.94;5001090;28;20099;-68
2022/12/10 02:08:19;;;;;;;62.72;30.58;;;;;;;-0.72;100.00;95288.53;4997754;28;20042;-68
2022/12/10 02:10:53;;;;;;;65.75;31.85;;;;;;;-0.75;100.00;95283.81;5004251;28;20105;-68
2022/12/10 02:13:30;;;;;;;65.13;30.58;;;;;;;-0.73;100.00;95286.94;4999544;28;20045;-69
2022/12/10 02:16:37;;;;;;;63.88;32.10;;;;;;;-0.74;100.00;95293.44;4996924;28;20042;-68
2022/12/10 02:19:32;;;;;;;63.00;30.77;;;;;;;-0.73;100.00;95294.25;4978525;28;20104;-68
2022/12/10 02:21:59;;;;;;;73.00;34.05;;;;;;;-0.72;100.00;95296.59;4983272;28;20133;-69
2022/12/10 02:24:33;;;;;;;61.17;30.27;;;;;;;-0.70;100.00;95301.63;4977817;28;20055;-68
2022/12/10 02:27:08;;;;;;;65.50;30.17;;;;;;;-0.68;100.00;95310.19;4984468;28;20058;-69
2022/12/10 02:29:35;;;;;;;64.43;29.80;;;;;;;-0.67;100.00;95307.13;5003025;28;20050;-68
2022/12/10 02:32:06;;;;;;;64.75;32.60;;;;;;;-0.68;100.00;95310.19;5003208;28;20069;-69
2022/12/10 02:34:37;;;;;;;66.85;32.45;;;;;;;-0.67;100.00;95309.81;5001330;28;20563;-70
2022/12/10 02:37:07;;;;;;;65.57;31.92;;;;;;;-0.66;100.00;95307.94;5001534;28;20118;-69
2022/12/10 02:39:42;;;;;;;66.28;30.95;;;;;;;-0.66;100.00;95303.34;5001280;28;20045;-69
2022/12/10 02:42:09;;;;;;;58.13;31.60;;;;;;;-0.66;100.00;95299.88;4999140;28;20041;-70
2022/12/10 02:44:38;;;;;;;63.97;33.05;;;;;;;-0.65;100.00;95291.47;5002352;28;20038;-69
2022/12/10 02:47:04;;;;;;;63.78;31.25;;;;;;;-0.57;100.00;95289.84;4998930;28;20069;-67
2022/12/10 02:49:30;;;;;;;58.45;29.08;;;;;;;-0.42;100.00;95289.22;4980258;28;20089;-69
2022/12/10 02:51:56;;;;;;;54.60;28.58;;;;;;;-0.14;100.00;95285.97;5003938;28;20061;-67
2022/12/10 02:54:44;;;;;;;54.80;28.08;;;;;;;0.04;100.00;95294.66;5000261;28;20124;-69
2022/12/10 02:57:18;;;;;;;50.35;25.73;;;;;;;0.11;100.00;95291.38;5002016;28;20049;-68
2022/12/10 03:00:05;;;;;;;45.13;24.75;;;;;;;0.18;100.00;95286.25;5006609;28;20046;-68
2022/12/10 03:02:52;;;;;;;40.35;23.70;;;;;;;0.25;100.00;95278.41;5001097;28;20046;-67
2022/12/10 03:05:40;;;;;;;41.75;22.90;;;;;;;0.29;100.00;95279.31;4997960;28;20479;-68
2022/12/10 03:08:12;;;;;;;38.33;22.05;;;;;;;0.30;100.00;95282.78;4995945;28;20369;-70
2022/12/10 03:10:38;;;;;;;35.33;21.25;;;;;;;0.36;100.00;95284.13;5002927;28;20038;-69
2022/12/10 03:13:11;;;;;;;36.95;22.05;;;;;;;0.40;100.00;95281.56;5001041;28;20046;-68
2022/12/10 03:15:39;;;;;;;35.60;21.05;;;;;;;0.43;100.00;95278.97;5002078;28;20049;-70
2022/12/10 03:18:07;;;;;;;38.10;23.23;;;;;;;0.37;100.00;95283.81;4996966;28;20057;-69
2022/12/10 03:20:37;;;;;;;40.00;24.27;;;;;;;-0.12;100.00;95281.03;4974666;28;20050;-69
2022/12/10 03:23:03;;;;;;;;;;;;;;;-0.12;100.00;95278.34;4981187;28;20041;-69
2022/12/10 03:25:30;;;;;;;37.60;21.52;;;;;;;0.06;100.00;95275.47;5020376;28;19928;-69
2022/12/10 03:27:58;;;;;;;41.08;22.30;;;;;;;0.32;100.00;95272.47;5000499;28;20030;-66
2022/12/10 03:30:24;;;;;;;37.35;21.52;;;;;;;0.55;100.00;95273.59;4993607;28;20664;-67
2022/12/10 03:32:51;;;;;;;43.60;23.90;;;;;;;0.56;100.00;95272.50;4993491;28;20038;-67
2022/12/10 03:35:20;;;;;;;39.35;22.70;;;;;;;0.54;100.00;95271.22;4980675;28;20049;-67
2022/12/10 03:37:46;;;;;;;40.50;21.77;;;;;;;0.61;100.00;95266.06;4998959;28;20479;-68
2022/12/10 03:40:12;;;;;;;40.75;22.17;;;;;;;0.50;100.00;95265.72;4995432;28;20036;-69
2022/12/10 03:42:38;;;;;;;44.58;23.30;;;;;;;0.30;100.00;95263.94;4988307;28;20042;-67
2022/12/10 03:45:04;;;;;;;40.28;24.15;;;;;;;0.32;100.00;95267.84;4978249;28;20046;-67
2022/12/10 03:47:30;;;;;;;42.92;24.17;;;;;;;0.27;100.00;95284.25;4981288;28;20069;-68
2022/12/10 03:49:55;;;;;;;45.90;23.73;;;;;;;0.17;100.00;95274.69;4995680;28;20065;-68
2022/12/10 03:52:21;;;;;;;46.78;25.00;;;;;;;0.14;100.00;95285.34;4995105;28;20947;-68
2022/12/10 03:54:46;;;;;;;44.28;23.98;;;;;;;0.14;100.00;95279.97;5003631;28;20446;-69
2022/12/10 03:57:12;;;;;;;43.50;24.67;;;;;;;0.16;100.00;95275.81;5004287;28;20461;-69
2022/12/10 03:59:37;;;;;;;45.60;24.25;;;;;;;-0.01;100.00;95281.41;5007656;28;20041;-69
2022/12/10 04:02:03;;;;;;;43.60;24.58;;;;;;;-0.01;100.00;95279.47;4998695;28;20041;-67
2022/12/10 04:04:29;;;;;;;44.45;23.88;;;;;;;0.06;100.00;95281.63;4997489;28;20072;-70
2022/12/10 04:06:54;;;;;;;47.50;24.83;;;;;;;-0.01;100.00;95284.09;4999001;28;20033;-68
2022/12/10 04:09:20;;;;;;;45.95;25.23;;;;;;;-0.16;100.00;95273.94;4995296;28;20034;-68
2022/12/10 04:11:46;;;;;;;51.05;26.70;;;;;;;-0.25;100.00;95274.03;4995318;28;20119;-69
2022/12/10 04:16:58;;;;;;;59.08;28.73;;;;;;;-0.32;100.00;95285.34;4997491;28;20044;-68
2022/12/10 04:19:27;;;;;;;58.25;28.77;;;;;;;-0.31;100.00;95280.75;4999177;28;20038;-68
2022/12/10 04:27:25;;;;;;;52.88;27.23;;;;;;;-0.32;100.00;95284.56;4979103;28;20054;-68
2022/12/10 04:29:52;;;;;;;53.10;29.10;;;;;;;-0.39;100.00;95288.56;5000766;28;20038;-69
2022/12/10 04:32:18;;;;;;;50.85;27.30;;;;;;;-0.34;100.00;95286.78;4995186;28;20030;-67
2022/12/10 04:34:44;;;;;;;51.78;26.90;;;;;;;-0.32;100.00;95285.34;4999386;28;20052;-67
2022/12/10 04:37:11;;;;;;;52.38;25.73;;;;;;;-0.26;100.00;95291.31;4994619;28;20045;-68
2022/12/10 04:39:37;;;;;;;52.63;27.75;;;;;;;-0.11;100.00;95295.25;4992898;28;20038;-66
2022/12/10 04:42:04;;;;;;;50.17;25.08;;;;;;;0.00;100.00;95291.06;4978144;28;20049;-66
2022/12/10 04:44:29;;;;;;;44.75;25.30;;;;;;;-0.10;100.00;95289.56;4979207;28;20046;-67
2022/12/10 04:46:55;;;;;;;49.08;25.08;;;;;;;-0.14;100.00;95287.88;4974663;28;20054;-67
2022/12/10 04:49:20;;;;;;;49.10;25.65;;;;;;;0.01;100.00;95295.31;4969321;28;20045;-66
2022/12/10 04:51:46;;;;;;;48.47;25.95;;;;;;;0.01;100.00;95297.22;4977970;28;20046;-67
2022/12/10 04:54:13;;;;;;;50.10;26.30;;;;;;;-0.09;100.00;95287.63;4972883;28;20170;-65
2022/12/10 04:56:39;;;;;;;52.67;26.00;;;;;;;-0.14;100.00;95285.97;4973486;28;20102;-67
2022/12/10 04:59:05;;;;;;;51.67;25.65;;;;;;;-0.12;100.00;95280.25;4989140;28;20048;-66
2022/12/10 05:01:31;;;;;;;44.03;22.88;;;;;;;-0.03;100.00;95289.78;5007529;28;20030;-68
2022/12/10 05:04:02;;;;;;;42.65;24.10;;;;;;;0.06;100.00;95288.94;5004814;28;20049;-68
2022/12/10 05:06:28;;;;;;;46.30;24.67;;;;;;;-0.08;100.00;95284.63;5000617;28;20510;-66
2022/12/10 05:08:54;;;;;;;46.17;23.35;;;;;;;0.10;100.00;95292.53;5003497;28;20046;-67
2022/12/10 05:11:22;;;;;;;48.03;24.45;;;;;;;0.32;100.00;95286.72;4999605;28;20053;-68
2022/12/10 05:13:47;;;;;;;46.92;25.05;;;;;;;0.34;100.00;95289.06;5005937;28;20510;-70
2022/12/10 05:16:17;;;;;;;46.15;24.77;;;;;;;0.18;100.00;95291.63;5001338;28;20042;-68
2022/12/10 05:18:42;;;;;;;50.50;25.00;;;;;;;0.11;100.00;95288.69;5005995;28;20038;-67
2022/12/10 05:21:12;;;;;;;50.00;26.92;;;;;;;0.08;100.00;95286.69;5000455;28;20034;-67
2022/12/10 05:23:40;;;;;;;45.67;24.38;;;;;;;0.14;100.00;95282.66;5006134;28;20581;-68
2022/12/10 05:26:07;;;;;;;45.00;24.38;;;;;;;0.03;100.00;95282.28;4999429;28;20049;-67
2022/12/10 05:28:36;;;;;;;46.38;24.30;;;;;;;0.13;100.00;95286.47;4976282;28;20129;-65
2022/12/10 05:31:02;;;;;;;50.83;25.65;;;;;;;0.22;100.00;95292.56;5001801;28;20108;-66
2022/12/10 05:33:27;;;;;;;45.67;25.30;;;;;;;0.22;100.00;95297.13;5001071;28;20558;-66
2022/12/10 05:35:54;;;;;;;44.03;24.42;;;;;;;0.09;100.00;95297.13;5004022;28;20065;-64
2022/12/10 05:38:20;;;;;;;45.28;24.42;;;;;;;0.41;100.00;95299.28;4998601;28;20100;-66
2022/12/10 05:40:46;;;;;;;47.08;23.13;;;;;;;0.56;100.00;95296.72;5005163;28;20041;-68
2022/12/10 05:43:11;;;;;;;42.40;24.17;;;;;;;0.51;100.00;95306.94;5000328;28;20395;-66
2022/12/10 05:45:36;;;;;;;45.13;23.35;;;;;;;0.66;100.00;95310.88;5001976;28;20072;-68
2022/12/10 05:48:02;;;;;;;43.67;23.00;;;;;;;0.63;100.00;95312.34;5006722;28;20077;-68
2022/12/10 05:50:27;;;;;;;42.00;22.40;;;;;;;0.64;100.00;95313.13;5021082;28;20141;-66
2022/12/10 05:52:53;;;;;;;43.30;22.85;;;;;;;0.69;100.00;95310.22;5006605;28;20044;-65
2022/12/10 05:55:18;;;;;;;45.00;23.60;;;;;;;0.72;100.00;95307.63;4998357;28;20037;-66
2022/12/10 05:57:44;;;;;;;41.40;22.88;;;;;;;0.56;100.00;95299.44;5004174;28;20042;-66
2022/12/10 06:00:10;;;;;;;46.03;23.58;;;;;;;0.63;100.00;95301.56;4998366;28;20073;-66
2022/12/10 06:02:35;;;;;;;42.17;21.55;;;;;;;0.59;100.00;95302.56;5003899;28;20068;-66
2022/12/10 06:05:01;;;;;;;41.20;22.10;;;;;;;0.71;100.00;95299.88;5007761;28;20503;-67
2022/12/10 06:07:26;;;;;;;39.75;21.88;;;;;;;0.74;100.00;95304.59;5003730;28;20077;-68
2022/12/10 06:09:52;;;;;;;38.67;20.65;;;;;;;0.67;100.00;95302.47;5006303;28;20372;-67
2022/12/10 06:12:17;;;;;;;42.20;22.40;;;;;;;0.72;100.00;95304.13;4999116;28;20042;-68
2022/12/10 06:14:43;;;;;;;41.30;22.38;;;;;;;0.47;100.00;95300.63;5001469;28;20046;-68
2022/12/10 06:17:08;;;;;;;41.67;20.83;;;;;;;0.33;100.00;95309.06;4998300;28;20101;-66
2022/12/10 06:19:34;;;;;;;38.55;20.27;;;;;;;0.27;100.00;95313.06;5005584;28;20141;-67
2022/12/10 06:22:00;;;;;;;41.25;21.20;;;;;;;0.42;100.00;95309.75;5004815;28;20092;-67
2022/12/10 06:24:25;;;;;;;38.05;20.83;;;;;;;0.59;100.00;95316.03;4999569;28;20138;-68
2022/12/10 06:26:50;;;;;;;40.25;20.33;;;;;;;0.75;100.00;95320.41;5006687;28;20069;-68
2022/12/10 06:29:17;;;;;;;39.20;20.65;;;;;;;0.71;100.00;95316.81;4998693;28;20129;-66
2022/12/10 06:31:43;;;;;;;33.58;17.63;;;;;;;0.86;100.00;95326.13;5004446;28;20042;-66
2022/12/10 06:34:08;;;;;;;32.75;18.45;;;;;;;0.82;100.00;95319.09;4994983;28;20096;-68
2022/12/10 06:36:34;;;;;;;34.67;19.25;;;;;;;0.69;100.00;95326.38;5003297;28;20660;-66
2022/12/10 06:38:59;;;;;;;38.25;18.83;;;;;;;0.56;100.00;95334.44;5000301;28;20046;-67
2022/12/10 06:41:25;;;;;;;33.90;19.17;;;;;;;0.46;100.00;95334.09;4999557;28;20050;-67
2022/12/10 06:43:50;;;;;;;44.28;23.40;;;;;;;0.40;100.00;95336.22;5001464;28;20107;-66
2022/12/10 06:46:18;;;;;;;37.72;20.02;;;;;;;0.41;100.00;95337.00;4998645;28;20069;-67
2022/12/10 06:48:44;;;;;;;46.17;23.33;;;;;;;0.42;100.00;95331.28;5000944;28;20121;-68
2022/12/10 06:51:12;;;;;;;43.20;21.95;;;;;;;0.47;100.00;95341.03;4998123;28;20546;-67
2022/12/10 06:53:38;;;;;;;38.33;20.80;;;;;;;0.17;100.00;95336.63;5004272;28;20053;-66
2022/12/10 06:56:05;;;;;;;41.65;21.88;;;;;;;0.23;100.00;95337.19;4997142;28;20037;-69
2022/12/10 06:58:33;;;;;;;38.55;19.17;;;;;;;0.43;100.00;95345.53;5005032;28;20046;-68
2022/12/10 07:01:10;;;;;;;46.05;22.27;;;;;;;0.34;100.00;95338.34;5001187;28;20049;-66
2022/12/10 07:03:36;;;;;;;42.95;21.55;;;;;;;0.46;100.00;95345.66;4996426;28;20499;-66
2022/12/10 07:06:03;;;;;;;40.97;19.98;;;;;;;0.49;100.00;95344.22;4999551;28;20117;-68
2022/12/10 07:08:29;;;;;;;43.17;20.83;;;;;;;0.66;100.00;95337.81;4997528;28;20045;-68
2022/12/10 07:10:55;;;;;;;49.97;27.17;;;;;;;0.23;100.00;95336.41;5001959;28;20042;-69
2022/12/10 07:13:21;;;;;;;42.50;22.95;;;;;;;0.20;100.00;95340.56;4998981;28;20050;-69
2022/12/10 07:15:46;;;;;;;60.10;30.48;;;;;;;0.04;100.00;95342.28;4998337;28;20103;-68
2022/12/10 07:18:11;;;;;;;46.78;23.60;;;;;;;-0.08;100.00;95338.44;4996182;28;20103;-68
2022/12/10 07:20:37;;;;;;;42.40;21.08;;;;;;;0.10;100.00;95346.38;5016606;28;20045;-67
2022/12/10 07:23:02;;;;;;;43.88;20.67;;;;;;;0.24;100.00;95346.06;5002586;28;20042;-66
2022/12/10 07:25:28;;;;;;;41.08;20.85;;;;;;;0.30;100.00;95340.13;4995849;28;20193;-68
2022/12/10 07:27:53;;;;;;;46.33;23.10;;;;;;;0.27;100.00;95346.19;4984178;28;20073;-68
2022/12/10 07:30:19;;;;;;;37.70;20.95;;;;;;;-0.15;100.00;95335.50;4979122;28;20041;-67
2022/12/10 07:32:44;;;;;;;42.75;20.88;;;;;;;-0.13;100.00;95335.19;4980376;28;20116;-67
2022/12/10 07:35:10;;;;;;;43.47;22.48;;;;;;;-0.11;100.00;95343.72;4976092;28;20046;-68
2022/12/10 07:37:35;;;;;;;46.60;21.85;;;;;;;-0.10;100.00;95340.69;4984044;28;20047;-67
2022/12/10 07:40:01;;;;;;;46.95;23.23;;;;;;;0.00;100.00;95342.19;4982852;28;20054;-68
2022/12/10 07:42:26;;;;;;;41.22;22.95;;;;;;;-0.05;100.00;95340.50;4977639;28;20043;-67
2022/12/10 07:44:51;;;;;;;50.20;27.65;;;;;;;-0.18;100.00;95340.75;4982584;28;20097;-67
2022/12/10 07:47:17;;;;;;;44.15;21.58;;;;;;;-0.24;100.00;95350.94;4978476;28;20065;-67
2022/12/10 07:49:42;;;;;;;41.85;20.33;;;;;;;-0.08;100.00;95343.84;4984540;28;20124;-66
2022/12/10 07:52:08;;;;;;;42.65;20.50;;;;;;;0.16;100.00;95350.41;4979625;28;20046;-66
2022/12/10 07:54:34;;;;;;;37.92;19.35;;;;;;;0.16;100.00;95350.41;4999497;28;20078;-67
2022/12/10 07:56:59;;;;;;;41.35;21.75;;;;;;;0.24;100.00;95359.53;4988862;28;20360;-68
2022/12/10 07:59:25;;;;;;;41.92;20.95;;;;;;;0.22;100.00;95357.19;4980314;28;20039;-68
2022/12/10 08:01:51;;;;;;;44.70;23.23;;;;;;;0.19;100.00;95353.22;4983586;28;20042;-68
2022/12/10 08:04:17;;;;;;;42.40;21.65;;;;;;;0.34;100.00;95364.47;4978888;28;20085;-68
2022/12/10 08:06:42;;;;;;;38.08;23.02;;;;;;;0.19;100.00;95360.53;4982361;28;20491;-67
2022/12/10 08:09:09;;;;;;;39.70;19.17;;;;;;;0.45;100.00;95364.84;4979137;28;20210;-66
2022/12/10 08:11:35;;;;;;;36.90;20.70;;;;;;;0.47;100.00;95366.09;4983820;28;20050;-67
2022/12/10 08:14:00;;;;;;;37.58;22.52;;;;;;;0.24;100.00;95373.00;4983875;28;20108;-72
2022/12/10 08:16:28;;;;;;;37.38;18.75;;;;;;;0.18;100.00;95378.59;4978701;28;20137;-68
2022/12/10 08:18:58;;;;;;;45.88;27.92;;;;;;;0.13;100.00;95369.94;4985947;28;20045;-67
2022/12/10 08:21:27;;;;;;;39.53;22.20;;;;;;;-0.06;100.00;95365.81;4982304;28;20042;-69
2022/12/10 08:23:54;;;;;;;39.05;21.60;;;;;;;-0.07;100.00;95372.34;4985464;28;20038;-67
2022/12/10 08:26:22;;;;;;;40.08;21.38;;;;;;;0.02;100.00;95366.06;4974091;28;20034;-67
2022/12/10 08:28:49;;;;;;;45.38;25.88;;;;;;;-0.10;100.00;95364.13;4987460;28;20747;-68
2022/12/10 08:31:16;;;;;;;43.88;23.10;;;;;;;-0.01;100.00;95365.63;4980045;28;20499;-67
2022/12/10 08:33:42;;;;;;;42.83;23.52;;;;;;;-0.06;100.00;95373.91;4979837;28;20137;-67
2022/12/10 08:36:09;;;;;;;45.90;25.50;;;;;;;-0.08;100.00;95376.13;4979209;28;20076;-68
2022/12/10 08:38:35;;;;;;;46.10;24.20;;;;;;;-0.08;100.00;95384.22;4985482;28;20039;-67
2022/12/10 08:41:19;;;;;;;58.38;29.23;;;;;;;-0.14;100.00;95384.75;4987404;28;20141;-68
2022/12/10 08:43:44;;;;;;;55.33;27.17;;;;;;;0.11;100.00;95391.00;5010270;28;20068;-68
2022/12/10 08:46:11;;;;;;;51.55;26.52;;;;;;;-0.01;100.00;95384.47;5002835;28;20042;-70
2022/12/10 08:48:37;;;;;;;46.10;23.48;;;;;;;0.08;100.00;95392.47;5006928;28;20136;-70
2022/12/10 08:51:04;;;;;;;36.92;19.60;;;;;;;0.26;100.00;95398.47;5004775;28;20468;-70
2022/12/10 08:53:30;;;;;;;34.97;19.33;;;;;;;0.26;100.00;95397.69;5001418;28;20049;-70
2022/12/10 08:55:56;;;;;;;35.63;19.15;;;;;;;0.43;100.00;95399.41;5002737;28;20042;-72
2022/12/10 08:58:21;;;;;;;36.60;19.25;;;;;;;0.64;100.00;95399.34;4995248;28;20104;-71
2022/12/10 09:00:48;;;;;;;35.20;18.20;;;;;;;0.53;100.00;95396.31;5003198;28;20500;-68
2022/12/10 09:03:14;;;;;;;32.15;17.02;;;;;;;0.51;100.00;95399.31;4999055;28;20045;-69
2022/12/10 09:05:39;;;;;;;32.70;18.25;;;;;;;0.70;100.00;95403.41;5000345;28;20096;-68
2022/12/10 09:08:04;;;;;;;35.17;19.63;;;;;;;0.62;100.00;95415.84;4997149;28;20056;-67
2022/12/10 09:10:30;;;;;;;35.20;18.75;;;;;;;0.46;100.00;95410.31;4998720;28;20038;-68
2022/12/10 09:12:55;;;;;;;36.28;20.08;;;;;;;0.22;100.00;95408.34;5001418;28;20491;-69
2022/12/10 09:15:21;;;;;;;40.45;21.35;;;;;;;0.54;100.00;95414.03;4998142;28;20961;-69
2022/12/10 09:17:46;;;;;;;42.45;21.13;;;;;;;0.53;100.00;95429.41;5001868;28;20104;-69
2022/12/10 09:20:12;;;;;;;40.35;20.88;;;;;;;0.63;100.00;95422.81;4993121;28;20141;-69
2022/12/10 09:22:38;;;;;;;39.05;20.33;;;;;;;0.99;100.00;95432.09;5001179;28;20092;-69
2022/12/10 09:25:06;;;;;;;41.92;22.83;;;;;;;1.08;100.00;95430.06;5003069;28;20137;-67
2022/12/10 09:27:32;;;;;;;36.60;19.63;;;;;;;1.08;100.00;95434.66;4999800;28;20066;-68
2022/12/10 09:29:58;;;;;;;35.92;19.88;;;;;;;1.20;100.00;95444.69;5000301;28;20045;-67
2022/12/10 09:32:23;;;;;;;40.85;22.17;;;;;;;1.21;100.00;95433.56;4997971;28;20056;-68
2022/12/10 09:34:51;;;;;;;45.83;22.92;;;;;;;1.40;100.00;95438.38;5000942;28;20072;-69
2022/12/10 09:37:17;;;;;;;42.97;22.40;;;;;;;1.26;100.00;95443.31;4996277;28;20645;-69
2022/12/10 09:39:43;;;;;;;44.83;24.17;;;;;;;1.17;100.00;95445.34;4996764;28;20136;-68
2022/12/10 09:42:32;;;;;;;43.45;24.20;;;;;;;0.52;100.00;95435.13;4995153;28;20045;-68
2022/12/10 09:45:26;;;;;;;45.70;23.57;;;;;;;0.25;100.00;95448.06;4997728;28;20041;-70
2022/12/10 09:48:06;;;;;;;42.25;23.73;;;;;;;0.18;100.00;95448.59;4986270;28;20070;-68
2022/12/10 09:50:46;;;;;;;42.63;23.65;;;;;;;0.50;100.00;95440.84;4983479;28;20121;-69
2022/12/10 09:53:17;;;;;;;47.13;24.83;;;;;;;0.43;100.00;95445.22;4976840;28;20050;-69
2022/12/10 09:55:44;;;;;;;45.47;24.90;;;;;;;0.67;100.00;95449.91;4986703;28;20050;-69
2022/12/10 09:58:18;;;;;;;45.00;24.13;;;;;;;0.52;100.00;95449.41;4978469;28;20181;-67
2022/12/10 10:00:47;;;;;;;47.53;25.73;;;;;;;0.66;100.00;95457.19;4986193;28;20038;-67
2022/12/10 10:03:14;;;;;;;45.47;24.88;;;;;;;0.92;100.00;95451.50;4980456;28;20073;-67
2022/12/10 10:05:43;;;;;;;47.30;25.38;;;;;;;1.17;100.00;95450.75;4985213;28;20038;-67
2022/12/10 10:08:27;;;;;;;54.63;27.83;;;;;;;1.07;100.00;95452.75;4980533;28;20100;-68
2022/12/10 10:10:53;;;;;;;49.65;26.15;;;;;;;1.18;100.00;95461.19;4985771;28;20038;-68
2022/12/10 10:13:35;;;;;;;53.33;28.38;;;;;;;0.99;100.00;95459.06;4977965;28;20042;-67
2022/12/10 10:16:16;;;;;;;52.88;27.90;;;;;;;1.03;100.00;95459.97;4986360;28;20074;-69
2022/12/10 10:18:46;;;;;;;55.13;28.38;;;;;;;1.05;100.00;95471.19;5000836;28;20543;-67
2022/12/10 10:21:21;;;;;;;55.88;27.98;;;;;;;1.19;100.00;95467.38;4979358;28;20531;-68
2022/12/10 10:23:47;;;;;;;52.67;28.45;;;;;;;1.26;100.00;95473.00;4989798;28;20506;-68
2022/12/10 10:26:13;;;;;;;49.95;28.55;;;;;;;1.22;100.00;95474.81;4985946;28;20038;-68
2022/12/10 10:28:40;;;;;;;50.50;28.38;;;;;;;1.19;100.00;95470.06;4985197;28;20042;-68
2022/12/10 10:31:19;;;;;;;57.75;29.85;;;;;;;1.18;100.00;95473.91;4980567;28;20034;-68
2022/12/10 10:33:57;;;;;;;67.20;33.67;;;;;;;1.23;100.00;95471.78;4986264;28;20050;-67
2022/12/10 10:36:32;;;;;;;63.92;31.13;;;;;;;1.38;100.00;95475.72;4978429;28;20057;-66
2022/12/10 10:39:09;;;;;;;60.78;31.23;;;;;;;1.39;100.00;95482.69;4983814;28;20073;-67
2022/12/10 10:41:39;;;;;;;51.25;27.58;;;;;;;1.29;100.00;95480.44;4986850;28;20129;-67
2022/12/10 10:44:14;;;;;;;45.47;25.83;;;;;;;1.34;100.00;95482.91;4980883;28;20101;-69
2022/12/10 10:46:41;;;;;;;49.00;26.17;;;;;;;1.33;100.00;95486.72;4984391;28;20486;-68
2022/12/10 10:49:18;;;;;;;57.97;29.60;;;;;;;1.29;100.00;95489.28;4977740;28;20594;-68
2022/12/10 10:51:47;;;;;;;51.20;29.80;;;;;;;1.40;100.00;95483.47;4985233;28;20077;-69
2022/12/10 10:54:31;;;;;;;56.33;30.25;;;;;;;1.49;100.00;95484.91;4979649;28;20098;-68
2022/12/10 10:56:56;;;;;;;49.40;26.80;;;;;;;1.38;100.00;95486.50;4980971;28;20396;-68
2022/12/10 10:59:31;;;;;;;45.25;27.15;;;;;;;1.42;100.00;95487.38;4979708;28;20057;-68
2022/12/10 11:02:26;;;;;;;43.55;24.77;;;;;;;1.56;100.00;95486.28;4983620;28;20045;-68
2022/12/10 11:04:54;;;;;;;37.05;21.83;;;;;;;1.58;100.00;95484.81;4983848;28;20053;-69
2022/12/10 11:07:33;;;;;;;41.70;23.58;;;;;;;1.56;100.00;95487.06;4980709;28;20054;-68
2022/12/10 11:09:59;;;;;;;41.40;21.73;;;;;;;1.51;100.00;95487.28;5004017;28;20053;-69
2022/12/10 11:12:39;;;;;;;36.70;22.23;;;;;;;1.38;100.00;95486.50;4999663;28;20041;-68
2022/12/10 11:15:30;;;;;;;39.97;21.52;;;;;;;1.05;100.00;95486.59;4999550;28;20100;-70
2022/12/10 11:17:56;;;;;;;44.10;24.88;;;;;;;1.10;100.00;95481.00;5003480;28;20048;-69
2022/12/10 11:20:33;;;;;;;47.88;25.13;;;;;;;1.26;100.00;95486.47;5010926;28;20049;-67
2022/12/10 11:23:09;;;;;;;38.28;22.10;;;;;;;1.38;100.00;95491.91;5003345;28;20042;-68
2022/12/10 11:25:44;;;;;;;37.20;22.15;;;;;;;1.29;100.00;95491.22;5001260;28;20041;-68
2022/12/10 11:28:28;;;;;;;36.63;21.98;;;;;;;1.46;100.00;95488.31;4988792;28;20107;-67